sensor_id;sensor_type;location;lat;lon;timestamp;P1;durP1;ratioP1;P2;durP2;ratioP2
7647;SDS011;3866;48.020;11.720;2023-03-02T00:00:31;38.03;;;22.73;;
7647;SDS011;3866;48.020;11.720;2023-03-02T00:02:59;37.20;;;22.40;;
7647;SDS011;3866;48.020;11.720;2023-03-02T00:05:28;42.03;;;22.97;;
7647;SDS011;3866;48.020;11.720;2023-03-02T00:07:55;37.03;;;20.90;;
7647;SDS011;3866;48.020;11.720;2023-03-02T00:10:23;38.43;;;23.27;;
7647;SDS011;3866;48.020;11.720;2023-03-02T00:12:50;38.00;;;22.10;;
7647;SDS011;3866;48.020;11.720;2023-03-02T00:15:18;33.43;;;21.60;;
7647;SDS011;3866;48.020;11.720;2023-03-02T00:17:44;35.30;;;22.97;;
7647;SDS011;3866;48.020;11.720;2023-03-02T00:20:12;43.10;;;25.17;;
7647;SDS011;3866;48.020;11.720;2023-03-02T00:22:41;40.53;;;23.53;;
7647;SDS011;3866;48.020;11.720;2023-03-02T00:25:09;42.33;;;25.43;;
7647;SDS011;3866;48.020;11.720;2023-03-02T00:27:37;42.03;;;23.87;;
7647;SDS011;3866;48.020;11.720;2023-03-02T00:30:05;38.10;;;23.57;;
7647;SDS011;3866;48.020;11.720;2023-03-02T00:32:32;41.60;;;25.30;;
7647;SDS011;3866;48.020;11.720;2023-03-02T00:34:59;42.27;;;24.43;;
7647;SDS011;3866;48.020;11.720;2023-03-02T00:37:26;40.47;;;23.60;;
7647;SDS011;3866;48.020;11.720;2023-03-02T00:39:55;38.90;;;23.53;;
7647;SDS011;3866;48.020;11.720;2023-03-02T00:42:22;37.03;;;22.97;;
7647;SDS011;3866;48.020;11.720;2023-03-02T00:44:48;38.10;;;22.63;;
7647;SDS011;3866;48.020;11.720;2023-03-02T00:47:17;35.67;;;21.27;;
7647;SDS011;3866;48.020;11.720;2023-03-02T00:49:44;33.33;;;22.13;;
7647;SDS011;3866;48.020;11.720;2023-03-02T00:52:13;38.47;;;21.47;;
7647;SDS011;3866;48.020;11.720;2023-03-02T00:54:40;41.13;;;23.00;;
7647;SDS011;3866;48.020;11.720;2023-03-02T00:57:09;38.83;;;22.37;;
7647;SDS011;3866;48.020;11.720;2023-03-02T00:59:36;36.77;;;22.10;;
7647;SDS011;3866;48.020;11.720;2023-03-02T01:02:03;37.07;;;22.30;;
7647;SDS011;3866;48.020;11.720;2023-03-02T01:04:32;37.63;;;23.00;;
7647;SDS011;3866;48.020;11.720;2023-03-02T01:07:03;39.43;;;23.73;;
7647;SDS011;3866;48.020;11.720;2023-03-02T01:09:31;43.40;;;23.73;;
7647;SDS011;3866;48.020;11.720;2023-03-02T01:11:58;37.77;;;23.23;;
7647;SDS011;3866;48.020;11.720;2023-03-02T01:14:26;37.60;;;23.17;;
7647;SDS011;3866;48.020;11.720;2023-03-02T01:16:54;41.20;;;23.70;;
7647;SDS011;3866;48.020;11.720;2023-03-02T01:19:21;39.93;;;24.47;;
7647;SDS011;3866;48.020;11.720;2023-03-02T01:21:47;42.67;;;24.73;;
7647;SDS011;3866;48.020;11.720;2023-03-02T01:24:14;38.80;;;24.40;;
7647;SDS011;3866;48.020;11.720;2023-03-02T01:26:41;41.97;;;24.30;;
7647;SDS011;3866;48.020;11.720;2023-03-02T01:29:08;40.80;;;24.37;;
7647;SDS011;3866;48.020;11.720;2023-03-02T01:31:37;39.97;;;23.57;;
7647;SDS011;3866;48.020;11.720;2023-03-02T01:34:04;39.40;;;25.77;;
7647;SDS011;3866;48.020;11.720;2023-03-02T01:36:31;38.07;;;23.67;;
7647;SDS011;3866;48.020;11.720;2023-03-02T01:38:58;38.53;;;23.77;;
7647;SDS011;3866;48.020;11.720;2023-03-02T01:41:26;36.90;;;23.87;;
7647;SDS011;3866;48.020;11.720;2023-03-02T01:43:53;40.07;;;25.27;;
7647;SDS011;3866;48.020;11.720;2023-03-02T01:46:20;39.47;;;24.20;;
7647;SDS011;3866;48.020;11.720;2023-03-02T01:48:51;43.20;;;25.90;;
7647;SDS011;3866;48.020;11.720;2023-03-02T01:51:23;41.57;;;24.70;;
7647;SDS011;3866;48.020;11.720;2023-03-02T01:53:53;39.13;;;23.60;;
7647;SDS011;3866;48.020;11.720;2023-03-02T01:56:22;38.00;;;22.43;;
7647;SDS011;3866;48.020;11.720;2023-03-02T01:58:53;39.50;;;24.40;;
7647;SDS011;3866;48.020;11.720;2023-03-02T02:01:26;41.10;;;24.50;;
7647;SDS011;3866;48.020;11.720;2023-03-02T02:03:55;39.23;;;23.60;;
7647;SDS011;3866;48.020;11.720;2023-03-02T02:06:23;40.27;;;24.70;;
7647;SDS011;3866;48.020;11.720;2023-03-02T02:08:51;39.77;;;24.03;;
7647;SDS011;3866;48.020;11.720;2023-03-02T02:11:20;43.67;;;25.27;;
7647;SDS011;3866;48.020;11.720;2023-03-02T02:13:47;38.50;;;24.17;;
7647;SDS011;3866;48.020;11.720;2023-03-02T02:16:14;37.07;;;23.80;;
7647;SDS011;3866;48.020;11.720;2023-03-02T02:18:41;35.50;;;22.40;;
7647;SDS011;3866;48.020;11.720;2023-03-02T02:21:12;45.07;;;25.07;;
7647;SDS011;3866;48.020;11.720;2023-03-02T02:23:41;40.23;;;24.73;;
7647;SDS011;3866;48.020;11.720;2023-03-02T02:26:16;37.83;;;23.77;;
7647;SDS011;3866;48.020;11.720;2023-03-02T02:28:50;43.23;;;24.77;;
7647;SDS011;3866;48.020;11.720;2023-03-02T02:31:22;40.13;;;23.77;;
7647;SDS011;3866;48.020;11.720;2023-03-02T02:33:54;37.30;;;24.03;;
7647;SDS011;3866;48.020;11.720;2023-03-02T02:36:36;37.27;;;23.10;;
7647;SDS011;3866;48.020;11.720;2023-03-02T02:39:07;38.50;;;23.77;;
7647;SDS011;3866;48.020;11.720;2023-03-02T02:41:42;43.17;;;24.57;;
7647;SDS011;3866;48.020;11.720;2023-03-02T02:44:13;37.70;;;23.00;;
7647;SDS011;3866;48.020;11.720;2023-03-02T02:46:42;36.83;;;24.47;;
7647;SDS011;3866;48.020;11.720;2023-03-02T02:49:13;36.27;;;22.90;;
7647;SDS011;3866;48.020;11.720;2023-03-02T02:51:48;40.00;;;24.90;;
7647;SDS011;3866;48.020;11.720;2023-03-02T02:54:16;43.63;;;25.63;;
7647;SDS011;3866;48.020;11.720;2023-03-02T02:56:46;40.20;;;25.27;;
7647;SDS011;3866;48.020;11.720;2023-03-02T02:59:15;38.97;;;24.17;;
7647;SDS011;3866;48.020;11.720;2023-03-02T03:01:45;43.53;;;23.57;;
7647;SDS011;3866;48.020;11.720;2023-03-02T03:04:18;38.47;;;25.27;;
7647;SDS011;3866;48.020;11.720;2023-03-02T03:06:50;40.57;;;25.00;;
7647;SDS011;3866;48.020;11.720;2023-03-02T03:09:18;36.87;;;24.50;;
7647;SDS011;3866;48.020;11.720;2023-03-02T03:11:48;41.23;;;25.07;;
7647;SDS011;3866;48.020;11.720;2023-03-02T03:14:17;39.40;;;24.43;;
7647;SDS011;3866;48.020;11.720;2023-03-02T03:16:46;38.73;;;24.50;;
7647;SDS011;3866;48.020;11.720;2023-03-02T03:19:15;42.73;;;24.63;;
7647;SDS011;3866;48.020;11.720;2023-03-02T03:21:44;41.67;;;25.83;;
7647;SDS011;3866;48.020;11.720;2023-03-02T03:24:14;38.23;;;23.97;;
7647;SDS011;3866;48.020;11.720;2023-03-02T03:26:41;41.77;;;24.40;;
7647;SDS011;3866;48.020;11.720;2023-03-02T03:29:10;40.67;;;25.23;;
7647;SDS011;3866;48.020;11.720;2023-03-02T03:31:37;39.93;;;25.03;;
7647;SDS011;3866;48.020;11.720;2023-03-02T03:34:05;37.33;;;24.33;;
7647;SDS011;3866;48.020;11.720;2023-03-02T03:36:32;39.60;;;23.43;;
7647;SDS011;3866;48.020;11.720;2023-03-02T03:38:59;42.43;;;25.37;;
7647;SDS011;3866;48.020;11.720;2023-03-02T03:41:27;39.37;;;24.70;;
7647;SDS011;3866;48.020;11.720;2023-03-02T03:43:54;42.00;;;25.30;;
7647;SDS011;3866;48.020;11.720;2023-03-02T03:46:23;39.07;;;24.33;;
7647;SDS011;3866;48.020;11.720;2023-03-02T03:48:50;41.83;;;25.57;;
7647;SDS011;3866;48.020;11.720;2023-03-02T03:51:17;41.37;;;26.17;;
7647;SDS011;3866;48.020;11.720;2023-03-02T03:53:44;41.97;;;24.83;;
7647;SDS011;3866;48.020;11.720;2023-03-02T03:56:23;43.90;;;26.47;;
7647;SDS011;3866;48.020;11.720;2023-03-02T03:58:50;43.43;;;26.73;;
7647;SDS011;3866;48.020;11.720;2023-03-02T04:01:32;40.83;;;25.17;;
7647;SDS011;3866;48.020;11.720;2023-03-02T04:04:02;40.80;;;25.33;;
7647;SDS011;3866;48.020;11.720;2023-03-02T04:06:30;41.60;;;25.33;;
7647;SDS011;3866;48.020;11.720;2023-03-02T04:08:57;42.73;;;25.20;;
7647;SDS011;3866;48.020;11.720;2023-03-02T04:11:28;46.83;;;26.50;;
7647;SDS011;3866;48.020;11.720;2023-03-02T04:13:55;41.87;;;24.80;;
7647;SDS011;3866;48.020;11.720;2023-03-02T04:16:22;42.43;;;25.63;;
7647;SDS011;3866;48.020;11.720;2023-03-02T04:18:51;41.70;;;25.17;;
7647;SDS011;3866;48.020;11.720;2023-03-02T04:21:18;48.40;;;26.40;;
7647;SDS011;3866;48.020;11.720;2023-03-02T04:23:45;44.03;;;25.33;;
7647;SDS011;3866;48.020;11.720;2023-03-02T04:26:12;42.03;;;24.80;;
7647;SDS011;3866;48.020;11.720;2023-03-02T04:28:39;48.00;;;26.17;;
7647;SDS011;3866;48.020;11.720;2023-03-02T04:31:05;39.47;;;25.63;;
7647;SDS011;3866;48.020;11.720;2023-03-02T04:33:32;37.70;;;23.77;;
7647;SDS011;3866;48.020;11.720;2023-03-02T04:36:01;42.97;;;25.80;;
7647;SDS011;3866;48.020;11.720;2023-03-02T04:38:28;41.73;;;25.27;;
7647;SDS011;3866;48.020;11.720;2023-03-02T04:40:55;42.40;;;25.97;;
7647;SDS011;3866;48.020;11.720;2023-03-02T04:43:22;43.23;;;25.27;;
7647;SDS011;3866;48.020;11.720;2023-03-02T04:45:50;44.70;;;26.13;;
7647;SDS011;3866;48.020;11.720;2023-03-02T04:48:18;40.93;;;25.33;;
7647;SDS011;3866;48.020;11.720;2023-03-02T04:50:46;39.20;;;24.30;;
7647;SDS011;3866;48.020;11.720;2023-03-02T04:53:14;43.03;;;25.67;;
7647;SDS011;3866;48.020;11.720;2023-03-02T04:55:41;40.53;;;25.63;;
7647;SDS011;3866;48.020;11.720;2023-03-02T04:58:08;40.97;;;25.00;;
7647;SDS011;3866;48.020;11.720;2023-03-02T05:00:35;42.27;;;26.30;;
7647;SDS011;3866;48.020;11.720;2023-03-02T05:03:02;48.60;;;29.07;;
7647;SDS011;3866;48.020;11.720;2023-03-02T05:05:29;109.30;;;58.63;;
7647;SDS011;3866;48.020;11.720;2023-03-02T05:07:56;55.97;;;33.23;;
7647;SDS011;3866;48.020;11.720;2023-03-02T05:10:26;45.10;;;25.70;;
7647;SDS011;3866;48.020;11.720;2023-03-02T05:12:54;39.73;;;23.90;;
7647;SDS011;3866;48.020;11.720;2023-03-02T05:15:22;38.60;;;24.50;;
7647;SDS011;3866;48.020;11.720;2023-03-02T05:17:51;39.10;;;23.57;;
7647;SDS011;3866;48.020;11.720;2023-03-02T05:20:18;39.90;;;23.43;;
7647;SDS011;3866;48.020;11.720;2023-03-02T05:22:51;42.20;;;24.83;;
7647;SDS011;3866;48.020;11.720;2023-03-02T05:25:18;40.60;;;24.67;;
7647;SDS011;3866;48.020;11.720;2023-03-02T05:27:47;40.57;;;24.13;;
7647;SDS011;3866;48.020;11.720;2023-03-02T05:30:14;40.30;;;23.67;;
7647;SDS011;3866;48.020;11.720;2023-03-02T05:32:41;40.43;;;25.53;;
7647;SDS011;3866;48.020;11.720;2023-03-02T05:35:09;44.63;;;25.47;;
7647;SDS011;3866;48.020;11.720;2023-03-02T05:37:36;40.33;;;24.73;;
7647;SDS011;3866;48.020;11.720;2023-03-02T05:40:06;40.50;;;25.60;;
7647;SDS011;3866;48.020;11.720;2023-03-02T05:42:34;45.10;;;26.10;;
7647;SDS011;3866;48.020;11.720;2023-03-02T05:45:02;41.77;;;25.07;;
7647;SDS011;3866;48.020;11.720;2023-03-02T05:47:29;46.23;;;25.53;;
7647;SDS011;3866;48.020;11.720;2023-03-02T05:49:57;44.00;;;24.97;;
7647;SDS011;3866;48.020;11.720;2023-03-02T05:52:24;38.57;;;24.97;;
7647;SDS011;3866;48.020;11.720;2023-03-02T05:54:51;38.97;;;24.20;;
7647;SDS011;3866;48.020;11.720;2023-03-02T05:57:18;41.83;;;24.50;;
7647;SDS011;3866;48.020;11.720;2023-03-02T05:59:45;40.93;;;25.77;;
7647;SDS011;3866;48.020;11.720;2023-03-02T06:02:13;42.50;;;25.03;;
7647;SDS011;3866;48.020;11.720;2023-03-02T06:04:40;39.87;;;23.60;;
7647;SDS011;3866;48.020;11.720;2023-03-02T06:07:07;38.87;;;24.93;;
7647;SDS011;3866;48.020;11.720;2023-03-02T06:09:35;39.57;;;22.83;;
7647;SDS011;3866;48.020;11.720;2023-03-02T06:12:02;43.17;;;25.87;;
7647;SDS011;3866;48.020;11.720;2023-03-02T06:14:29;41.43;;;24.03;;
7647;SDS011;3866;48.020;11.720;2023-03-02T06:16:56;39.73;;;24.07;;
7647;SDS011;3866;48.020;11.720;2023-03-02T06:19:25;38.50;;;24.23;;
7647;SDS011;3866;48.020;11.720;2023-03-02T06:21:52;41.07;;;23.27;;
7647;SDS011;3866;48.020;11.720;2023-03-02T06:24:18;37.63;;;22.97;;
7647;SDS011;3866;48.020;11.720;2023-03-02T06:26:45;34.97;;;22.17;;
7647;SDS011;3866;48.020;11.720;2023-03-02T06:29:12;35.43;;;21.90;;
7647;SDS011;3866;48.020;11.720;2023-03-02T06:31:39;36.63;;;23.03;;
7647;SDS011;3866;48.020;11.720;2023-03-02T06:34:06;39.37;;;24.70;;
7647;SDS011;3866;48.020;11.720;2023-03-02T06:36:34;42.07;;;23.97;;
7647;SDS011;3866;48.020;11.720;2023-03-02T06:39:02;35.67;;;23.23;;
7647;SDS011;3866;48.020;11.720;2023-03-02T06:41:29;32.47;;;21.77;;
7647;SDS011;3866;48.020;11.720;2023-03-02T06:43:57;33.53;;;20.97;;
7647;SDS011;3866;48.020;11.720;2023-03-02T06:46:24;34.10;;;22.90;;
7647;SDS011;3866;48.020;11.720;2023-03-02T06:48:51;34.77;;;21.83;;
7647;SDS011;3866;48.020;11.720;2023-03-02T06:51:18;41.77;;;23.37;;
7647;SDS011;3866;48.020;11.720;2023-03-02T06:53:46;32.57;;;21.33;;
7647;SDS011;3866;48.020;11.720;2023-03-02T06:56:13;34.17;;;22.70;;
7647;SDS011;3866;48.020;11.720;2023-03-02T06:58:40;37.60;;;24.03;;
7647;SDS011;3866;48.020;11.720;2023-03-02T07:01:07;35.80;;;20.87;;
7647;SDS011;3866;48.020;11.720;2023-03-02T07:03:34;34.40;;;22.13;;
7647;SDS011;3866;48.020;11.720;2023-03-02T07:06:01;35.10;;;22.33;;
7647;SDS011;3866;48.020;11.720;2023-03-02T07:08:29;40.27;;;26.30;;
7647;SDS011;3866;48.020;11.720;2023-03-02T07:10:57;38.37;;;24.90;;
7647;SDS011;3866;48.020;11.720;2023-03-02T07:13:24;40.80;;;26.23;;
7647;SDS011;3866;48.020;11.720;2023-03-02T07:15:51;33.87;;;23.30;;
7647;SDS011;3866;48.020;11.720;2023-03-02T07:18:19;34.50;;;23.73;;
7647;SDS011;3866;48.020;11.720;2023-03-02T07:20:45;28.77;;;20.43;;
7647;SDS011;3866;48.020;11.720;2023-03-02T07:23:12;25.77;;;19.23;;
7647;SDS011;3866;48.020;11.720;2023-03-02T07:25:39;29.67;;;20.80;;
7647;SDS011;3866;48.020;11.720;2023-03-02T07:28:08;26.90;;;19.43;;
7647;SDS011;3866;48.020;11.720;2023-03-02T07:30:35;23.63;;;18.37;;
7647;SDS011;3866;48.020;11.720;2023-03-02T07:33:01;24.97;;;18.93;;
7647;SDS011;3866;48.020;11.720;2023-03-02T07:35:28;27.77;;;19.40;;
7647;SDS011;3866;48.020;11.720;2023-03-02T07:37:55;23.20;;;18.23;;
7647;SDS011;3866;48.020;11.720;2023-03-02T07:40:22;27.47;;;18.70;;
7647;SDS011;3866;48.020;11.720;2023-03-02T07:42:49;24.70;;;19.50;;
7647;SDS011;3866;48.020;11.720;2023-03-02T07:45:17;29.13;;;22.20;;
7647;SDS011;3866;48.020;11.720;2023-03-02T07:47:48;30.93;;;22.90;;
7647;SDS011;3866;48.020;11.720;2023-03-02T07:50:15;33.33;;;23.70;;
7647;SDS011;3866;48.020;11.720;2023-03-02T07:52:42;35.03;;;23.93;;
7647;SDS011;3866;48.020;11.720;2023-03-02T07:55:09;29.20;;;23.07;;
7647;SDS011;3866;48.020;11.720;2023-03-02T07:57:36;31.00;;;21.53;;
7647;SDS011;3866;48.020;11.720;2023-03-02T08:00:04;29.73;;;21.17;;
7647;SDS011;3866;48.020;11.720;2023-03-02T08:02:33;28.53;;;20.43;;
7647;SDS011;3866;48.020;11.720;2023-03-02T08:05:00;26.67;;;21.13;;
7647;SDS011;3866;48.020;11.720;2023-03-02T08:07:27;27.93;;;21.00;;
7647;SDS011;3866;48.020;11.720;2023-03-02T08:09:54;29.53;;;20.73;;
7647;SDS011;3866;48.020;11.720;2023-03-02T08:12:22;29.40;;;20.53;;
7647;SDS011;3866;48.020;11.720;2023-03-02T08:14:48;28.10;;;19.77;;
7647;SDS011;3866;48.020;11.720;2023-03-02T08:17:15;26.67;;;18.50;;
7647;SDS011;3866;48.020;11.720;2023-03-02T08:19:44;26.10;;;18.67;;
7647;SDS011;3866;48.020;11.720;2023-03-02T08:22:11;28.93;;;21.30;;
7647;SDS011;3866;48.020;11.720;2023-03-02T08:24:38;29.13;;;21.40;;
7647;SDS011;3866;48.020;11.720;2023-03-02T08:27:06;29.63;;;20.73;;
7647;SDS011;3866;48.020;11.720;2023-03-02T08:29:33;29.77;;;21.53;;
7647;SDS011;3866;48.020;11.720;2023-03-02T08:32:00;27.57;;;20.23;;
7647;SDS011;3866;48.020;11.720;2023-03-02T08:34:27;27.50;;;19.53;;
7647;SDS011;3866;48.020;11.720;2023-03-02T08:36:55;29.73;;;20.57;;
7647;SDS011;3866;48.020;11.720;2023-03-02T08:39:22;32.73;;;21.77;;
7647;SDS011;3866;48.020;11.720;2023-03-02T08:41:49;31.30;;;20.47;;
7647;SDS011;3866;48.020;11.720;2023-03-02T08:44:16;29.57;;;20.80;;
7647;SDS011;3866;48.020;11.720;2023-03-02T08:46:45;29.87;;;21.50;;
7647;SDS011;3866;48.020;11.720;2023-03-02T08:49:13;30.93;;;20.43;;
7647;SDS011;3866;48.020;11.720;2023-03-02T08:51:39;29.07;;;19.87;;
7647;SDS011;3866;48.020;11.720;2023-03-02T08:54:08;26.07;;;19.53;;
7647;SDS011;3866;48.020;11.720;2023-03-02T08:56:36;26.67;;;18.80;;
7647;SDS011;3866;48.020;11.720;2023-03-02T08:59:05;25.07;;;18.80;;
7647;SDS011;3866;48.020;11.720;2023-03-02T09:01:35;24.57;;;17.37;;
7647;SDS011;3866;48.020;11.720;2023-03-02T09:04:03;24.77;;;16.63;;
7647;SDS011;3866;48.020;11.720;2023-03-02T09:06:32;24.70;;;18.70;;
7647;SDS011;3866;48.020;11.720;2023-03-02T09:08:59;24.47;;;18.87;;
7647;SDS011;3866;48.020;11.720;2023-03-02T09:11:28;23.83;;;18.10;;
7647;SDS011;3866;48.020;11.720;2023-03-02T09:13:55;22.83;;;18.30;;
7647;SDS011;3866;48.020;11.720;2023-03-02T09:16:22;23.33;;;17.70;;
7647;SDS011;3866;48.020;11.720;2023-03-02T09:18:50;24.27;;;17.77;;
7647;SDS011;3866;48.020;11.720;2023-03-02T09:21:17;22.83;;;17.67;;
7647;SDS011;3866;48.020;11.720;2023-03-02T09:23:44;26.00;;;18.27;;
7647;SDS011;3866;48.020;11.720;2023-03-02T09:26:11;21.80;;;16.93;;
7647;SDS011;3866;48.020;11.720;2023-03-02T09:28:40;25.60;;;19.37;;
7647;SDS011;3866;48.020;11.720;2023-03-02T09:31:07;23.00;;;18.03;;
7647;SDS011;3866;48.020;11.720;2023-03-02T09:33:34;24.43;;;18.67;;
7647;SDS011;3866;48.020;11.720;2023-03-02T09:36:04;23.87;;;18.40;;
7647;SDS011;3866;48.020;11.720;2023-03-02T09:38:31;22.80;;;17.17;;
7647;SDS011;3866;48.020;11.720;2023-03-02T09:41:08;26.53;;;17.90;;
7647;SDS011;3866;48.020;11.720;2023-03-02T09:43:54;24.00;;;18.03;;
7647;SDS011;3866;48.020;11.720;2023-03-02T09:46:28;21.53;;;16.40;;
7647;SDS011;3866;48.020;11.720;2023-03-02T09:49:04;25.40;;;18.70;;
7647;SDS011;3866;48.020;11.720;2023-03-02T09:51:42;22.13;;;16.93;;
7647;SDS011;3866;48.020;11.720;2023-03-02T09:54:13;23.00;;;17.00;;
7647;SDS011;3866;48.020;11.720;2023-03-02T09:56:42;30.00;;;17.23;;
7647;SDS011;3866;48.020;11.720;2023-03-02T09:59:17;25.67;;;16.63;;
7647;SDS011;3866;48.020;11.720;2023-03-02T10:01:50;24.30;;;16.73;;
7647;SDS011;3866;48.020;11.720;2023-03-02T10:04:21;22.07;;;16.07;;
7647;SDS011;3866;48.020;11.720;2023-03-02T10:06:53;26.40;;;16.40;;
7647;SDS011;3866;48.020;11.720;2023-03-02T10:09:22;26.67;;;16.70;;
7647;SDS011;3866;48.020;11.720;2023-03-02T10:11:53;24.97;;;16.07;;
7647;SDS011;3866;48.020;11.720;2023-03-02T10:14:35;23.17;;;17.03;;
7647;SDS011;3866;48.020;11.720;2023-03-02T10:17:18;22.63;;;16.30;;
7647;SDS011;3866;48.020;11.720;2023-03-02T10:19:59;29.20;;;17.53;;
7647;SDS011;3866;48.020;11.720;2023-03-02T10:22:31;30.87;;;16.77;;
7647;SDS011;3866;48.020;11.720;2023-03-02T10:25:03;23.07;;;17.33;;
7647;SDS011;3866;48.020;11.720;2023-03-02T10:27:38;25.30;;;17.07;;
7647;SDS011;3866;48.020;11.720;2023-03-02T10:30:13;23.97;;;16.43;;
7647;SDS011;3866;48.020;11.720;2023-03-02T10:32:45;23.97;;;16.80;;
7647;SDS011;3866;48.020;11.720;2023-03-02T10:35:15;23.83;;;17.17;;
7647;SDS011;3866;48.020;11.720;2023-03-02T10:37:45;27.13;;;16.57;;
7647;SDS011;3866;48.020;11.720;2023-03-02T10:40:17;24.57;;;17.33;;
7647;SDS011;3866;48.020;11.720;2023-03-02T10:43:03;21.97;;;16.93;;
7647;SDS011;3866;48.020;11.720;2023-03-02T10:45:33;24.87;;;16.43;;
7647;SDS011;3866;48.020;11.720;2023-03-02T10:48:00;22.27;;;15.60;;
7647;SDS011;3866;48.020;11.720;2023-03-02T10:50:27;19.37;;;13.90;;
7647;SDS011;3866;48.020;11.720;2023-03-02T10:52:55;16.80;;;13.20;;
7647;SDS011;3866;48.020;11.720;2023-03-02T10:55:22;16.67;;;13.60;;
7647;SDS011;3866;48.020;11.720;2023-03-02T10:57:57;22.53;;;14.50;;
7647;SDS011;3866;48.020;11.720;2023-03-02T11:00:27;20.07;;;13.70;;
7647;SDS011;3866;48.020;11.720;2023-03-02T11:02:58;19.30;;;13.80;;
7647;SDS011;3866;48.020;11.720;2023-03-02T11:05:28;20.83;;;15.07;;
7647;SDS011;3866;48.020;11.720;2023-03-02T11:07:57;20.20;;;15.43;;
7647;SDS011;3866;48.020;11.720;2023-03-02T11:10:26;21.13;;;15.17;;
7647;SDS011;3866;48.020;11.720;2023-03-02T11:12:56;24.03;;;14.60;;
7647;SDS011;3866;48.020;11.720;2023-03-02T11:15:25;20.77;;;14.73;;
7647;SDS011;3866;48.020;11.720;2023-03-02T11:18:03;19.60;;;14.93;;
7647;SDS011;3866;48.020;11.720;2023-03-02T11:20:33;24.50;;;15.23;;
7647;SDS011;3866;48.020;11.720;2023-03-02T11:23:12;19.57;;;14.97;;
7647;SDS011;3866;48.020;11.720;2023-03-02T11:25:44;19.13;;;14.03;;
7647;SDS011;3866;48.020;11.720;2023-03-02T11:31:11;20.47;;;14.10;;
7647;SDS011;3866;48.020;11.720;2023-03-02T11:33:53;19.33;;;14.63;;
7647;SDS011;3866;48.020;11.720;2023-03-02T11:36:29;21.13;;;15.27;;
7647;SDS011;3866;48.020;11.720;2023-03-02T11:39:06;20.67;;;13.80;;
7647;SDS011;3866;48.020;11.720;2023-03-02T11:41:42;19.23;;;14.60;;
7647;SDS011;3866;48.020;11.720;2023-03-02T11:44:13;18.53;;;14.23;;
7647;SDS011;3866;48.020;11.720;2023-03-02T11:46:43;19.17;;;13.63;;
7647;SDS011;3866;48.020;11.720;2023-03-02T11:49:16;19.40;;;14.70;;
7647;SDS011;3866;48.020;11.720;2023-03-02T11:51:50;21.43;;;14.13;;
7647;SDS011;3866;48.020;11.720;2023-03-02T11:54:24;21.47;;;16.07;;
7647;SDS011;3866;48.020;11.720;2023-03-02T11:56:58;22.20;;;14.80;;
7647;SDS011;3866;48.020;11.720;2023-03-02T11:59:26;23.50;;;14.00;;
7647;SDS011;3866;48.020;11.720;2023-03-02T12:01:53;17.97;;;14.13;;
7647;SDS011;3866;48.020;11.720;2023-03-02T12:04:29;19.43;;;15.07;;
7647;SDS011;3866;48.020;11.720;2023-03-02T12:06:58;17.50;;;14.37;;
7647;SDS011;3866;48.020;11.720;2023-03-02T12:09:31;19.90;;;13.80;;
7647;SDS011;3866;48.020;11.720;2023-03-02T12:14:58;19.30;;;13.30;;
7647;SDS011;3866;48.020;11.720;2023-03-02T12:17:30;20.73;;;13.73;;
7647;SDS011;3866;48.020;11.720;2023-03-02T12:22:51;18.17;;;13.57;;
7647;SDS011;3866;48.020;11.720;2023-03-02T12:25:26;16.73;;;12.90;;
7647;SDS011;3866;48.020;11.720;2023-03-02T12:28:02;20.73;;;13.57;;
7647;SDS011;3866;48.020;11.720;2023-03-02T12:30:29;17.27;;;12.63;;
7647;SDS011;3866;48.020;11.720;2023-03-02T12:33:04;18.57;;;12.70;;
7647;SDS011;3866;48.020;11.720;2023-03-02T12:35:46;15.27;;;11.17;;
7647;SDS011;3866;48.020;11.720;2023-03-02T12:38:22;14.97;;;12.13;;
7647;SDS011;3866;48.020;11.720;2023-03-02T12:43:43;16.43;;;13.10;;
7647;SDS011;3866;48.020;11.720;2023-03-02T12:46:28;17.87;;;14.37;;
7647;SDS011;3866;48.020;11.720;2023-03-02T12:49:14;19.87;;;14.00;;
7647;SDS011;3866;48.020;11.720;2023-03-02T12:51:53;21.17;;;14.27;;
7647;SDS011;3866;48.020;11.720;2023-03-02T12:54:22;27.33;;;15.67;;
7647;SDS011;3866;48.020;11.720;2023-03-02T12:57:00;18.17;;;13.97;;
7647;SDS011;3866;48.020;11.720;2023-03-02T12:59:30;17.33;;;14.27;;
7647;SDS011;3866;48.020;11.720;2023-03-02T13:02:14;22.13;;;16.03;;
7647;SDS011;3866;48.020;11.720;2023-03-02T13:04:42;20.37;;;14.10;;
7647;SDS011;3866;48.020;11.720;2023-03-02T13:07:18;18.53;;;14.10;;
7647;SDS011;3866;48.020;11.720;2023-03-02T13:09:48;20.23;;;14.70;;
7647;SDS011;3866;48.020;11.720;2023-03-02T13:12:16;18.13;;;13.67;;
7647;SDS011;3866;48.020;11.720;2023-03-02T13:14:43;19.77;;;14.70;;
7647;SDS011;3866;48.020;11.720;2023-03-02T13:17:19;19.80;;;14.13;;
7647;SDS011;3866;48.020;11.720;2023-03-02T13:19:48;18.00;;;14.23;;
7647;SDS011;3866;48.020;11.720;2023-03-02T13:22:17;18.93;;;14.20;;
7647;SDS011;3866;48.020;11.720;2023-03-02T13:24:48;19.37;;;13.77;;
7647;SDS011;3866;48.020;11.720;2023-03-02T13:27:17;21.13;;;14.57;;
7647;SDS011;3866;48.020;11.720;2023-03-02T13:29:45;20.97;;;14.67;;
7647;SDS011;3866;48.020;11.720;2023-03-02T13:32:14;16.67;;;13.83;;
7647;SDS011;3866;48.020;11.720;2023-03-02T13:34:46;19.00;;;13.97;;
7647;SDS011;3866;48.020;11.720;2023-03-02T13:37:17;17.40;;;13.80;;
7647;SDS011;3866;48.020;11.720;2023-03-02T13:39:53;18.33;;;13.97;;
7647;SDS011;3866;48.020;11.720;2023-03-02T13:42:25;17.13;;;13.10;;
7647;SDS011;3866;48.020;11.720;2023-03-02T13:44:54;24.43;;;18.70;;
7647;SDS011;3866;48.020;11.720;2023-03-02T13:47:21;28.63;;;19.43;;
7647;SDS011;3866;48.020;11.720;2023-03-02T13:49:49;26.47;;;19.10;;
7647;SDS011;3866;48.020;11.720;2023-03-02T13:52:19;25.53;;;19.37;;
7647;SDS011;3866;48.020;11.720;2023-03-02T13:54:51;26.57;;;19.33;;
7647;SDS011;3866;48.020;11.720;2023-03-02T13:57:20;25.17;;;19.67;;
7647;SDS011;3866;48.020;11.720;2023-03-02T13:59:50;25.70;;;19.97;;
7647;SDS011;3866;48.020;11.720;2023-03-02T14:02:21;28.73;;;22.00;;
7647;SDS011;3866;48.020;11.720;2023-03-02T14:04:49;31.77;;;21.87;;
7647;SDS011;3866;48.020;11.720;2023-03-02T14:07:18;25.57;;;20.53;;
7647;SDS011;3866;48.020;11.720;2023-03-02T14:09:45;31.20;;;21.20;;
7647;SDS011;3866;48.020;11.720;2023-03-02T14:12:16;29.03;;;21.83;;
7647;SDS011;3866;48.020;11.720;2023-03-02T14:14:49;29.53;;;21.73;;
7647;SDS011;3866;48.020;11.720;2023-03-02T14:17:20;27.67;;;20.93;;
7647;SDS011;3866;48.020;11.720;2023-03-02T14:19:49;28.80;;;20.77;;
7647;SDS011;3866;48.020;11.720;2023-03-02T14:22:19;29.87;;;21.23;;
7647;SDS011;3866;48.020;11.720;2023-03-02T14:24:47;28.00;;;21.70;;
7647;SDS011;3866;48.020;11.720;2023-03-02T14:27:14;30.77;;;21.00;;
7647;SDS011;3866;48.020;11.720;2023-03-02T14:29:43;32.17;;;21.83;;
7647;SDS011;3866;48.020;11.720;2023-03-02T14:32:11;28.23;;;21.60;;
7647;SDS011;3866;48.020;11.720;2023-03-02T14:34:40;31.17;;;22.27;;
7647;SDS011;3866;48.020;11.720;2023-03-02T14:37:09;30.17;;;21.67;;
7647;SDS011;3866;48.020;11.720;2023-03-02T14:39:40;28.23;;;21.33;;
7647;SDS011;3866;48.020;11.720;2023-03-02T14:42:09;28.23;;;21.10;;
7647;SDS011;3866;48.020;11.720;2023-03-02T14:44:38;29.53;;;21.60;;
7647;SDS011;3866;48.020;11.720;2023-03-02T14:47:05;28.87;;;20.73;;
7647;SDS011;3866;48.020;11.720;2023-03-02T14:49:34;31.10;;;21.67;;
7647;SDS011;3866;48.020;11.720;2023-03-02T14:52:01;32.33;;;22.17;;
7647;SDS011;3866;48.020;11.720;2023-03-02T14:54:34;31.50;;;22.30;;
7647;SDS011;3866;48.020;11.720;2023-03-02T14:57:06;28.67;;;22.03;;